»·PEaware :: N9074Q KSBA-KPRB

N9074Q :: KSBA-KPRB

FLIGHT INFORMATION

Flight Status: Arrived
Operator: Privately registered:
United States
More flights under this callsign
Pilot: John N. (18861)
Aircraft: BEECH AIRCRAFT BONANZA
(BE36)
More flights by this aircraft type
Origin: KSBA Santa Barbara Mun
United States
Destination: KPRB Paso Robles Mun
United States
More flights between these airports :: More routes between these airports
Route: +FLOUT5 GVO V27 MQO
File this flight plan on PilotEdge
Remarks:
Altitude:
(Current/Filed)
60ft
Speed:
(Current/Filed)
160kts
Departed: 12-Sep-18 02:24 PM
Arrived: 12-Sep-18 03:09 PM
Distance/Time
Traveled:
84nm/0:44
Distance/Time
To Go:
Arrived

Flight Plot

Page will automatically refresh every two minutes.

Flight plan parsing failed; only flown route is shown


Map Options




Map Legend


Flown Route
Filed Route
Departure Airport
Arrival Airport
Navaid (VOR, NDB)
Fix

Horizontal Profiles

Position Reports

Time Latitude Longitude Heading Altitude Ground
Speed
12-Sep-18 14:13 34.421009 -119.836002 345 14ft 0kts
12-Sep-18 14:14 34.421010 -119.836002 345 14ft 0kts
12-Sep-18 14:15 34.421010 -119.836002 345 14ft 0kts
12-Sep-18 14:16 34.421011 -119.836002 345 14ft 0kts
12-Sep-18 14:17 34.421011 -119.836003 345 14ft 0kts
12-Sep-18 14:18 34.421012 -119.836003 345 14ft 0kts
12-Sep-18 14:19 34.421012 -119.836003 345 14ft 0kts
12-Sep-18 14:20 34.421031 -119.836008 345 14ft 2kts
12-Sep-18 14:21 34.423187 -119.837304 355 14ft 15kts
12-Sep-18 14:22 34.426683 -119.837585 80 14ft 18kts
12-Sep-18 14:23 34.427129 -119.834753 341 14ft 0kts
12-Sep-18 14:24 34.427129 -119.834754 341 14ft 0kts
12-Sep-18 14:25 34.427130 -119.834754 341 14ft 0kts
12-Sep-18 14:26 34.427818 -119.838975 267 14ft 70kts
12-Sep-18 14:27 34.418079 -119.864886 199 1077ft 122kts
12-Sep-18 14:28 34.384294 -119.868171 204 2429ft 129kts
12-Sep-18 14:29 34.355415 -119.891136 219 3678ft 123kts
12-Sep-18 14:30 34.325184 -119.914885 209 4562ft 134kts
12-Sep-18 14:31 34.292362 -119.933690 199 5487ft 137kts
12-Sep-18 14:32 34.282076 -119.965461 318 6008ft 136kts
12-Sep-18 14:33 34.319950 -119.985246 335 6003ft 155kts
12-Sep-18 14:34 34.359542 -120.005452 335 5999ft 153kts
12-Sep-18 14:35 34.398797 -120.025584 335 5999ft 153kts
12-Sep-18 14:36 34.438158 -120.045795 335 5998ft 153kts
12-Sep-18 14:37 34.477715 -120.066131 335 6004ft 160kts
12-Sep-18 14:38 34.520535 -120.086672 337 5982ft 166kts
12-Sep-18 14:39 34.554557 -120.112587 322 5997ft 154kts
12-Sep-18 14:40 34.588603 -120.143701 321 5999ft 152kts
12-Sep-18 14:41 34.624131 -120.176329 321 5988ft 163kts
12-Sep-18 14:42 34.656092 -120.205757 321 6006ft 154kts
12-Sep-18 14:43 34.690850 -120.237762 321 5989ft 164kts
12-Sep-18 14:44 34.723831 -120.268168 321 5995ft 160kts
12-Sep-18 14:45 34.756164 -120.298000 321 5999ft 160kts
12-Sep-18 14:46 34.790756 -120.329972 321 6011ft 154kts
12-Sep-18 14:47 34.824981 -120.361628 321 6011ft 154kts
12-Sep-18 14:48 34.860801 -120.394809 321 6000ft 164kts
12-Sep-18 14:49 34.896178 -120.427573 321 6008ft 157kts
12-Sep-18 14:50 34.939154 -120.440728 0 5999ft 169kts
12-Sep-18 14:51 34.986589 -120.438375 358 5998ft 169kts
12-Sep-18 14:52 35.033819 -120.437748 357 6001ft 168kts
12-Sep-18 14:53 35.079634 -120.437442 357 6000ft 161kts
12-Sep-18 14:54 35.123169 -120.437193 357 6003ft 154kts
12-Sep-18 14:55 35.165953 -120.436901 357 6004ft 153kts
12-Sep-18 14:56 35.209874 -120.436623 357 5993ft 160kts
12-Sep-18 14:57 35.253550 -120.436356 357 5998ft 157kts
12-Sep-18 14:58 35.297542 -120.436100 357 5999ft 158kts
12-Sep-18 14:59 35.338896 -120.435850 357 5983ft 168kts
12-Sep-18 15:00 35.383982 -120.435543 357 5987ft 152kts
12-Sep-18 15:01 35.421509 -120.435338 356 5992ft 131kts
12-Sep-18 15:02 35.458220 -120.435148 356 5995ft 134kts
12-Sep-18 15:03 35.488644 -120.457218 322 6005ft 123kts
12-Sep-18 15:04 35.521312 -120.486433 323 4780ft 152kts
12-Sep-18 15:05 35.553538 -120.515191 324 3685ft 123kts
12-Sep-18 15:06 35.578798 -120.538032 325 3104ft 110kts
12-Sep-18 15:07 35.601634 -120.558709 324 2549ft 113kts
12-Sep-18 15:08 35.626836 -120.581461 323 1957ft 113kts
12-Sep-18 15:09 35.652463 -120.604521 322 1263ft 110kts
12-Sep-18 15:10 35.669234 -120.619672 320 840ft 54kts
12-Sep-18 15:11 35.676963 -120.626737 319 840ft 20kts
12-Sep-18 15:12 35.677410 -120.629630 119 840ft 0kts
12-Sep-18 15:13 35.677410 -120.629630 119 840ft 0kts

Navigation Log

Ident Type
Flight plan parsing failed, navigation log unavailable